Time;durP1;ratioP1;P1;durP2;ratioP2;P2;SDS_P1;SDS_P2;PMS_P1;PMS_P2;Temp;Humidity;BMP_temperature;BMP_pressure;BME280_temperature;BME280_humidity;BME280_pressure;Samples;Min_cycle;Max_cycle;Signal;HPM_P1;HPM_P2
2023/07/19 00:00:13;;;;;;;3.65;2.47;;;26.30;99.90;;;;;;5033205;28;20029;-54
2023/07/19 00:02:39;;;;;;;3.72;2.13;;;26.30;99.90;;;;;;4974979;28;20048;-54
2023/07/19 00:05:07;;;;;;;2.63;1.58;;;26.30;99.90;;;;;;5033627;28;20033;-54
2023/07/19 00:07:33;;;;;;;2.45;1.85;;;26.30;99.90;;;;;;4997381;28;20057;-55
2023/07/19 00:09:59;;;;;;;6.97;2.90;;;26.40;99.90;;;;;;5014064;28;20057;-53
2023/07/19 00:12:25;;;;;;;6.40;2.72;;;26.40;99.90;;;;;;5014120;28;20037;-54
2023/07/19 00:14:50;;;;;;;4.38;2.55;;;26.50;99.90;;;;;;5032963;28;20088;-54
2023/07/19 00:17:16;;;;;;;3.58;2.58;;;26.60;99.90;;;;;;5032574;28;20464;-54
2023/07/19 00:19:42;;;;;;;4.90;3.30;;;26.70;99.90;;;;;;5032745;28;20037;-54
2023/07/19 00:22:08;;;;;;;7.50;2.70;;;26.80;99.90;;;;;;4997815;28;20083;-54
2023/07/19 00:24:34;;;;;;;5.93;3.40;;;26.90;99.90;;;;;;5030696;28;20040;-54
2023/07/19 00:27:00;;;;;;;4.05;2.88;;;27.00;99.90;;;;;;5032505;28;20025;-54
2023/07/19 00:29:25;;;;;;;5.35;2.90;;;27.00;99.90;;;;;;4997428;28;20508;-54
2023/07/19 00:31:51;;;;;;;4.60;3.30;;;27.00;99.90;;;;;;5032962;28;20437;-54
2023/07/19 00:34:17;;;;;;;4.45;3.20;;;27.10;99.90;;;;;;4997352;28;20571;-54
2023/07/19 00:36:43;;;;;;;7.25;3.67;;;27.10;99.90;;;;;;5032439;28;20484;-54
2023/07/19 00:39:09;;;;;;;5.65;3.70;;;27.20;99.90;;;;;;5032409;28;20029;-54
2023/07/19 00:41:35;;;;;;;7.68;3.78;;;27.30;99.90;;;;;;5031909;28;20036;-54
2023/07/19 00:44:00;;;;;;;6.32;3.92;;;27.40;99.90;;;;;;5032311;28;20040;-54
2023/07/19 00:46:27;;;;;;;7.18;3.38;;;27.40;99.90;;;;;;4948109;28;20037;-54
2023/07/19 00:48:53;;;;;;;4.47;3.35;;;27.50;99.90;;;;;;4997522;28;20060;-54
2023/07/19 00:51:20;;;;;;;3.70;3.13;;;27.60;99.90;;;;;;5032100;28;20022;-54
2023/07/19 00:53:48;;;;;;;9.02;3.28;;;27.70;99.90;;;;;;5031952;28;20030;-54
2023/07/19 00:56:15;;;;;;;5.90;3.40;;;27.70;99.90;;;;;;5032131;28;20104;-55
2023/07/19 00:58:42;;;;;;;4.22;3.22;;;27.70;99.90;;;;;;5013023;28;20439;-54
2023/07/19 01:01:09;;;;;;;7.57;3.25;;;27.70;99.90;;;;;;5031851;28;20026;-54
2023/07/19 01:03:35;;;;;;;9.02;3.50;;;27.70;99.90;;;;;;5031973;28;20033;-54
2023/07/19 01:06:03;;;;;;;4.30;3.28;;;27.70;99.90;;;;;;5031820;28;20105;-54
2023/07/19 01:08:29;;;;;;;5.30;3.10;;;27.80;99.90;;;;;;5029718;28;20073;-54
2023/07/19 01:10:55;;;;;;;4.88;2.47;;;27.90;99.90;;;;;;5013147;28;20053;-54
2023/07/19 01:13:21;;;;;;;5.10;3.13;;;27.80;99.90;;;;;;5007076;28;20051;-54
2023/07/19 01:15:47;;;;;;;5.40;3.10;;;27.80;99.90;;;;;;5012756;28;20044;-54
2023/07/19 01:18:13;;;;;;;6.03;3.22;;;27.80;99.90;;;;;;5031751;28;20469;-54
2023/07/19 01:20:38;;;;;;;5.47;2.92;;;27.80;99.90;;;;;;5006620;28;20049;-54
2023/07/19 01:23:04;;;;;;;4.60;2.92;;;27.70;99.90;;;;;;4996810;28;20488;-54
2023/07/19 01:25:30;;;;;;;4.40;3.40;;;27.60;99.90;;;;;;4979792;28;20071;-55
2023/07/19 01:27:56;;;;;;;6.88;3.50;;;27.60;99.90;;;;;;5030804;28;20025;-54
2023/07/19 01:30:22;;;;;;;5.50;3.40;;;27.50;99.90;;;;;;5031989;28;20042;-54
2023/07/19 01:32:48;;;;;;;4.90;3.28;;;27.50;99.90;;;;;;5031578;28;20022;-54
2023/07/19 01:35:14;;;;;;;5.28;2.88;;;27.50;99.90;;;;;;4989243;28;20397;-54
2023/07/19 01:37:40;;;;;;;4.00;3.35;;;27.50;99.90;;;;;;4989647;28;20046;-54
2023/07/19 01:40:06;;;;;;;5.32;3.05;;;27.50;99.90;;;;;;4989511;28;20867;-54
2023/07/19 01:42:32;;;;;;;6.45;3.00;;;27.40;99.90;;;;;;4973185;28;20156;-54
2023/07/19 01:45:00;;;;;;;4.10;3.10;;;27.40;99.90;;;;;;4988845;28;20130;-54
2023/07/19 01:47:26;;;;;;;6.50;3.65;;;27.40;99.90;;;;;;4989484;28;20570;-55
2023/07/19 01:49:52;;;;;;;6.28;2.75;;;27.40;99.90;;;;;;4989777;28;20176;-54
2023/07/19 01:52:17;;;;;;;4.53;3.50;;;27.30;99.90;;;;;;4983705;28;20154;-54
2023/07/19 01:54:43;;;;;;;5.90;3.45;;;27.30;99.90;;;;;;4989237;28;20046;-54
2023/07/19 01:57:09;;;;;;;14.07;6.10;;;27.20;99.90;;;;;;4989514;28;20030;-55
2023/07/19 01:59:35;;;;;;;13.20;6.60;;;27.00;99.90;;;;;;4988907;28;20030;-54
2023/07/19 02:02:01;;;;;;;13.27;5.85;;;27.10;99.90;;;;;;4989664;28;20514;-54
2023/07/19 02:04:27;;;;;;;10.68;5.40;;;27.10;99.90;;;;;;4989945;28;20105;-54
2023/07/19 02:06:53;;;;;;;7.60;4.38;;;27.10;99.90;;;;;;5020897;28;20056;-53
2023/07/19 02:09:19;;;;;;;6.97;4.07;;;27.10;99.90;;;;;;4999455;28;20052;-54
2023/07/19 02:11:44;;;;;;;11.23;4.68;;;27.10;99.90;;;;;;5031454;28;20056;-54
2023/07/19 02:14:11;;;;;;;14.35;5.00;;;27.00;99.90;;;;;;4995824;28;20037;-54
2023/07/19 02:16:36;;;;;;;25.23;7.95;;;27.00;99.90;;;;;;5002360;28;20418;-53
2023/07/19 02:19:05;;;;;;;22.40;6.20;;;27.00;99.90;;;;;;5030909;28;20040;-54
2023/07/19 02:21:30;;;;;;;11.55;5.15;;;27.00;99.90;;;;;;5030725;28;20071;-54
2023/07/19 02:23:57;;;;;;;7.53;3.97;;;26.90;99.90;;;;;;5012042;28;20489;-53
2023/07/19 02:26:26;;;;;;;6.18;3.60;;;26.80;99.90;;;;;;5031223;28;20030;-54
2023/07/19 02:28:52;;;;;;;5.38;3.50;;;26.70;99.90;;;;;;5030839;28;20037;-54
2023/07/19 02:31:18;;;;;;;5.15;3.05;;;26.60;99.90;;;;;;5012629;28;20043;-54
2023/07/19 02:33:44;;;;;;;6.68;3.08;;;26.70;99.90;;;;;;4995537;28;20045;-54
2023/07/19 02:36:13;;;;;;;3.55;2.70;;;26.70;99.90;;;;;;5030641;28;20031;-53
2023/07/19 02:38:38;;;;;;;4.55;2.92;;;26.70;99.90;;;;;;5032970;28;20052;-54
2023/07/19 02:41:04;;;;;;;4.63;2.70;;;26.70;99.90;;;;;;4993547;28;20508;-54
2023/07/19 02:43:30;;;;;;;3.60;2.15;;;;;;;;;;5034591;28;20485;-54
2023/07/19 02:45:56;;;;;;;4.05;2.53;;;26.50;99.90;;;;;;5015599;28;20046;-54
2023/07/19 02:48:22;;;;;;;4.28;2.90;;;26.50;99.90;;;;;;4999671;28;20034;-53
2023/07/19 02:50:49;;;;;;;5.82;3.47;;;26.40;99.90;;;;;;5034211;28;20033;-55
2023/07/19 02:53:16;;;;;;;6.53;3.25;;;26.40;99.90;;;;;;5034113;28;20017;-53
2023/07/19 02:55:45;;;;;;;4.75;2.83;;;26.50;99.90;;;;;;5034546;28;20108;-54
2023/07/19 02:58:14;;;;;;;4.68;3.20;;;26.40;99.90;;;;;;5033126;28;20476;-54
2023/07/19 03:00:43;;;;;;;5.72;3.10;;;26.50;99.90;;;;;;5034845;28;20109;-54
2023/07/19 03:03:11;;;;;;;8.23;3.33;;;26.50;99.90;;;;;;5015619;28;20542;-54
2023/07/19 03:05:44;;;;;;;7.97;2.90;;;26.60;99.90;;;;;;5032273;28;20421;-54
2023/07/19 03:08:11;;;;;;;5.07;2.88;;;26.50;99.90;;;;;;5035272;28;20053;-54
2023/07/19 03:10:38;;;;;;;4.75;3.33;;;26.60;99.90;;;;;;5033596;28;20052;-53
2023/07/19 03:13:04;;;;;;;4.90;2.85;;;26.50;99.90;;;;;;5035540;28;20061;-54
2023/07/19 03:15:33;;;;;;;7.88;3.25;;;26.20;99.90;;;;;;5031537;28;20108;-53
2023/07/19 03:18:03;;;;;;;5.93;3.22;;;26.20;99.90;;;;;;5033853;28;20104;-56
2023/07/19 03:20:29;;;;;;;7.70;2.60;;;26.10;99.90;;;;;;5034909;28;20026;-54
2023/07/19 03:23:00;;;;;;;7.30;3.08;;;25.90;99.90;;;;;;5034647;28;20025;-53
2023/07/19 03:25:28;;;;;;;5.05;3.25;;;25.90;99.90;;;;;;5034718;28;20037;-54
2023/07/19 03:27:54;;;;;;;5.00;3.28;;;25.80;99.90;;;;;;5034788;28;20043;-54
2023/07/19 03:30:20;;;;;;;3.97;2.42;;;25.80;99.90;;;;;;5000274;28;20045;-53
2023/07/19 03:32:47;;;;;;;4.63;2.70;;;25.70;99.90;;;;;;5034719;28;20026;-53
2023/07/19 03:35:13;;;;;;;6.28;3.10;;;25.50;99.90;;;;;;5034576;28;20572;-54
2023/07/19 03:37:44;;;;;;;6.20;3.35;;;;;;;;;;5034541;28;20040;-54
2023/07/19 03:40:10;;;;;;;6.40;3.45;;;25.50;99.90;;;;;;5034291;28;20026;-53
2023/07/19 03:42:36;;;;;;;6.78;3.17;;;25.40;99.90;;;;;;5034391;28;20038;-53
2023/07/19 03:45:03;;;;;;;5.38;3.20;;;25.50;99.90;;;;;;5034908;28;20061;-54
2023/07/19 03:47:29;;;;;;;6.03;3.13;;;25.40;99.90;;;;;;5008419;28;20045;-53
2023/07/19 03:49:55;;;;;;;9.45;3.70;;;;;;;;;;5033306;28;20033;-53
2023/07/19 03:52:21;;;;;;;6.80;3.45;;;25.30;99.90;;;;;;5006562;28;20451;-54
2023/07/19 03:54:48;;;;;;;5.80;3.08;;;25.20;99.90;;;;;;5034236;28;20025;-54
2023/07/19 03:57:14;;;;;;;6.18;3.40;;;25.30;99.90;;;;;;5015997;28;20458;-53
2023/07/19 03:59:40;;;;;;;6.63;3.30;;;25.30;99.90;;;;;;5034306;28;20045;-54
2023/07/19 04:02:05;;;;;;;8.18;3.60;;;25.20;99.90;;;;;;5034219;28;20428;-53
2023/07/19 04:04:31;;;;;;;4.93;2.42;;;;;;;;;;4989132;28;20060;-54
2023/07/19 04:06:57;;;;;;;5.25;3.15;;;25.20;99.90;;;;;;5034721;28;20160;-53
2023/07/19 04:09:23;;;;;;;4.70;3.30;;;25.10;99.90;;;;;;5034188;28;20370;-53
2023/07/19 04:11:49;;;;;;;5.28;2.90;;;25.10;99.90;;;;;;5034674;28;20381;-54
2023/07/19 04:14:14;;;;;;;8.38;3.97;;;25.20;99.90;;;;;;5034123;28;20036;-53
2023/07/19 04:16:41;;;;;;;4.68;2.65;;;25.20;99.90;;;;;;5033899;28;20415;-54
2023/07/19 04:19:07;;;;;;;4.90;2.72;;;25.30;99.90;;;;;;5034212;28;20384;-54
2023/07/19 04:21:32;;;;;;;6.47;3.00;;;25.30;99.90;;;;;;5034019;28;20029;-54
2023/07/19 04:23:58;;;;;;;6.75;2.72;;;25.30;99.90;;;;;;5033804;28;20029;-54
2023/07/19 04:26:24;;;;;;;4.13;2.25;;;25.30;99.90;;;;;;5033757;28;20045;-53
2023/07/19 04:28:49;;;;;;;6.30;2.45;;;25.30;99.90;;;;;;4975194;28;20046;-55
2023/07/19 04:31:16;;;;;;;3.42;2.22;;;25.30;99.90;;;;;;4982760;28;20033;-53
2023/07/19 04:33:41;;;;;;;3.42;2.20;;;25.30;99.90;;;;;;5033917;28;21051;-54
2023/07/19 04:36:12;;;;;;;5.35;2.00;;;25.40;99.90;;;;;;5034136;28;20124;-53
2023/07/19 04:38:38;;;;;;;4.80;2.50;;;25.40;99.90;;;;;;4990987;28;20507;-54
2023/07/19 04:41:04;;;;;;;3.53;2.00;;;25.40;99.90;;;;;;4995629;28;20038;-54
2023/07/19 04:43:30;;;;;;;3.47;2.03;;;25.50;99.90;;;;;;5014793;28;20806;-54
2023/07/19 04:45:55;;;;;;;3.05;1.73;;;25.50;99.90;;;;;;5032761;28;20033;-54
2023/07/19 04:48:21;;;;;;;4.45;1.75;;;25.60;99.90;;;;;;5033071;28;20037;-54
2023/07/19 04:50:56;;;;;;;4.47;2.03;;;25.70;99.90;;;;;;5032702;28;20446;-54
2023/07/19 04:53:22;;;;;;;3.65;1.58;;;25.80;99.90;;;;;;5033052;28;20120;-54
2023/07/19 04:55:51;;;;;;;2.83;1.80;;;25.80;99.90;;;;;;4998626;28;20064;-54
2023/07/19 04:58:17;;;;;;;8.43;2.05;;;;;;;;;;5033126;28;20053;-53
2023/07/19 05:00:43;;;;;;;7.20;1.70;;;;;;;;;;5033639;28;20087;-54
2023/07/19 05:03:09;;;;;;;4.38;2.30;;;;;;;;;;5033261;28;20033;-54
2023/07/19 05:05:35;;;;;;;5.72;1.95;;;26.30;99.90;;;;;;5031820;28;20029;-54
2023/07/19 05:08:04;;;;;;;4.07;1.65;;;26.30;99.90;;;;;;5033174;28;20474;-54
2023/07/19 05:10:30;;;;;;;4.05;1.65;;;26.40;99.90;;;;;;5033336;28;20045;-53
2023/07/19 05:12:56;;;;;;;2.38;1.30;;;26.50;99.90;;;;;;5032618;28;20435;-55
2023/07/19 05:15:21;;;;;;;4.32;2.08;;;26.60;99.90;;;;;;5032815;28;20025;-54
2023/07/19 05:17:47;;;;;;;7.55;1.65;;;26.60;99.90;;;;;;5032574;28;20473;-55
2023/07/19 05:20:13;;;;;;;3.85;1.52;;;26.60;99.90;;;;;;5032891;28;20025;-53
2023/07/19 05:22:39;;;;;;;4.53;1.45;;;26.70;99.90;;;;;;5032428;28;20080;-54
2023/07/19 05:25:05;;;;;;;6.80;1.95;;;26.60;99.90;;;;;;5033261;28;20086;-54
2023/07/19 05:27:31;;;;;;;4.53;1.77;;;26.80;99.90;;;;;;5032520;28;20034;-54
2023/07/19 05:29:57;;;;;;;5.15;1.35;;;26.80;99.90;;;;;;5014391;28;20044;-54
2023/07/19 05:32:22;;;;;;;7.30;1.55;;;27.00;99.90;;;;;;5032035;28;20107;-54
2023/07/19 05:34:48;;;;;;;7.32;2.08;;;27.00;99.90;;;;;;5013430;28;20397;-53
2023/07/19 05:37:14;;;;;;;2.90;1.33;;;27.00;99.90;;;;;;4998397;28;20495;-53
2023/07/19 05:39:40;;;;;;;3.50;1.52;;;26.90;99.90;;;;;;4996954;28;20037;-54
2023/07/19 05:42:06;;;;;;;5.53;1.50;;;27.00;99.90;;;;;;5005746;28;20037;-54
2023/07/19 05:44:33;;;;;;;3.42;1.30;;;;;;;;;;4990625;28;20097;-54
2023/07/19 05:46:58;;;;;;;3.97;1.02;;;27.20;99.90;;;;;;4976062;28;20570;-54
2023/07/19 05:49:24;;;;;;;4.88;1.05;;;27.30;99.90;;;;;;4990644;28;20066;-53
2023/07/19 05:51:50;;;;;;;3.30;1.42;;;27.20;99.90;;;;;;4990504;28;20094;-54
2023/07/19 05:54:16;;;;;;;7.75;1.63;;;27.30;99.90;;;;;;4990780;28;20069;-54
2023/07/19 05:56:42;;;;;;;3.15;0.90;;;27.40;99.90;;;;;;4991485;28;20030;-54
2023/07/19 05:59:08;;;;;;;4.53;1.50;;;27.60;99.90;;;;;;4974665;28;20070;-53
2023/07/19 06:02:10;;;;;;;4.97;1.25;;;27.80;99.90;;;;;;4988453;28;20395;-54
2023/07/19 06:04:36;;;;;;;4.47;1.27;;;27.70;99.90;;;;;;4987313;28;20514;-54
2023/07/19 06:07:02;;;;;;;3.28;1.23;;;27.70;99.90;;;;;;4990528;28;20061;-54
2023/07/19 06:09:28;;;;;;;5.18;1.35;;;27.80;99.90;;;;;;4973763;28;20447;-54
2023/07/19 06:11:56;;;;;;;5.93;1.40;;;;;;;;;;4990349;28;20394;-54
2023/07/19 06:14:23;;;;;;;4.78;1.65;;;27.90;99.90;;;;;;4994161;28;20065;-54
2023/07/19 06:16:49;;;;;;;5.53;1.58;;;27.90;99.90;;;;;;5032272;28;20075;-53
2023/07/19 06:19:16;;;;;;;4.95;1.67;;;28.10;99.90;;;;;;5013116;28;20037;-54
2023/07/19 06:21:42;;;;;;;4.43;1.40;;;;;;;;;;5031559;28;20110;-54
2023/07/19 06:24:08;;;;;;;5.90;1.30;;;28.20;99.90;;;;;;5009514;28;20042;-54
2023/07/19 06:26:33;;;;;;;7.93;1.70;;;28.20;99.90;;;;;;5009986;28;20044;-54
2023/07/19 06:28:59;;;;;;;2.38;1.17;;;28.30;99.90;;;;;;5009060;28;20096;-53
2023/07/19 06:31:25;;;;;;;3.13;1.25;;;28.20;99.90;;;;;;4994249;28;20042;-54
2023/07/19 06:33:51;;;;;;;4.93;1.40;;;28.30;99.90;;;;;;5009392;28;20046;-55
2023/07/19 06:36:16;;;;;;;5.50;1.33;;;28.40;99.90;;;;;;5004888;28;20057;-53
2023/07/19 06:38:42;;;;;;;2.58;1.38;;;28.50;99.90;;;;;;5009703;28;20116;-53
2023/07/19 06:41:08;;;;;;;3.17;1.55;;;28.50;99.90;;;;;;5009467;28;20045;-53
2023/07/19 06:43:34;;;;;;;6.18;1.50;;;28.60;99.90;;;;;;4968088;28;20136;-53
2023/07/19 06:45:59;;;;;;;5.53;2.00;;;28.80;99.90;;;;;;4976739;28;20042;-53
2023/07/19 06:48:25;;;;;;;3.38;1.55;;;28.90;99.90;;;;;;5009402;28;20096;-53
2023/07/19 06:50:51;;;;;;;2.95;1.10;;;;;;;;;;5008977;28;20092;-53
2023/07/19 06:53:17;;;;;;;4.93;1.27;;;28.90;99.90;;;;;;5009484;28;20034;-53
2023/07/19 06:55:43;;;;;;;6.55;1.83;;;29.00;99.90;;;;;;5026257;28;20099;-53
2023/07/19 06:58:09;;;;;;;4.20;1.50;;;;;;;;;;5031564;28;20033;-53
2023/07/19 07:00:35;;;;;;;1.73;1.17;;;29.40;99.90;;;;;;5013438;28;20435;-53
2023/07/19 07:03:03;;;;;;;4.60;1.60;;;;;;;;;;5013281;28;20041;-53
2023/07/19 07:05:29;;;;;;;1.85;1.10;;;29.80;99.90;;;;;;5031820;28;20044;-53
2023/07/19 07:07:55;;;;;;;5.47;1.80;;;29.90;99.90;;;;;;5009138;28;20053;-53
2023/07/19 07:10:21;;;;;;;3.95;1.75;;;;;;;;;;5031785;28;20473;-53
2023/07/19 07:12:47;;;;;;;3.17;1.30;;;;;;;;;;5031379;28;20017;-53
2023/07/19 07:15:13;;;;;;;4.82;1.85;;;30.30;99.90;;;;;;5031463;28;20495;-53
2023/07/19 07:17:40;;;;;;;5.25;1.40;;;;;;;;;;5031794;28;20026;-53
2023/07/19 07:20:07;;;;;;;4.70;1.95;;;30.20;99.90;;;;;;5031492;28;20029;-53
2023/07/19 07:22:33;;;;;;;2.92;1.40;;;30.50;99.90;;;;;;5031289;28;20168;-54
2023/07/19 07:24:59;;;;;;;2.85;1.30;;;30.30;99.90;;;;;;5033371;28;20490;-53
2023/07/19 07:27:27;;;;;;;5.45;1.55;;;30.30;99.90;;;;;;5034827;28;20029;-53
2023/07/19 07:29:53;;;;;;;4.65;1.50;;;30.40;99.90;;;;;;5012387;28;20057;-54
2023/07/19 07:32:20;;;;;;;5.03;1.48;;;;;;;;;;5013055;28;20105;-53
2023/07/19 07:34:45;;;;;;;3.63;1.38;;;31.40;99.90;;;;;;5013386;28;20038;-53
2023/07/19 07:37:11;;;;;;;3.42;1.40;;;30.90;99.90;;;;;;5012712;28;20497;-53
2023/07/19 07:39:37;;;;;;;4.95;1.33;;;31.00;99.90;;;;;;5012377;28;20045;-56
2023/07/19 07:42:03;;;;;;;2.30;1.10;;;;;;;;;;5010761;28;20037;-56
2023/07/19 07:44:28;;;;;;;4.43;1.83;;;30.90;99.90;;;;;;5013053;28;20398;-58
2023/07/19 07:46:54;;;;;;;4.53;1.67;;;30.90;99.90;;;;;;5012555;28;20042;-54
2023/07/19 07:49:20;;;;;;;3.97;1.45;;;;;;;;;;5012269;28;20157;-54
2023/07/19 07:51:46;;;;;;;4.60;1.60;;;;;;;;;;5012111;28;20022;-53
2023/07/19 07:54:12;;;;;;;4.72;1.80;;;31.60;99.90;;;;;;5013085;28;20038;-55
2023/07/19 07:56:38;;;;;;;4.40;1.70;;;31.60;99.90;;;;;;5012421;28;20457;-54
2023/07/19 07:59:04;;;;;;;3.28;1.50;;;31.80;99.90;;;;;;5012362;28;20050;-59
2023/07/19 08:01:30;;;;;;;7.53;1.83;;;31.90;99.90;;;;;;5028318;28;20468;-56
2023/07/19 08:03:55;;;;;;;8.90;1.60;;;31.90;99.90;;;;;;5015999;28;20116;-59
2023/07/19 08:06:21;;;;;;;3.10;1.33;;;31.90;99.90;;;;;;5033863;28;20173;-58
2023/07/19 08:08:47;;;;;;;2.83;1.38;;;31.80;99.90;;;;;;5034303;28;20424;-58
2023/07/19 08:11:12;;;;;;;2.97;1.60;;;31.60;99.90;;;;;;5028067;28;20050;-59
2023/07/19 08:13:38;;;;;;;1.73;1.42;;;31.90;99.90;;;;;;5030618;28;20037;-59
2023/07/19 08:16:07;;;;;;;6.35;1.42;;;32.10;99.90;;;;;;5033898;28;20029;-56
2023/07/19 08:18:34;;;;;;;5.10;1.38;;;32.20;99.90;;;;;;5034470;28;20112;-57
2023/07/19 08:21:00;;;;;;;2.33;1.40;;;32.50;99.90;;;;;;5034016;28;20021;-55
2023/07/19 08:23:26;;;;;;;2.95;1.20;;;32.20;99.90;;;;;;5033390;28;20147;-55
2023/07/19 08:25:56;;;;;;;3.78;1.92;;;32.40;99.90;;;;;;5013299;28;20124;-55
2023/07/19 08:28:23;;;;;;;4.03;1.73;;;32.80;99.90;;;;;;5033980;28;20477;-55
2023/07/19 08:30:49;;;;;;;5.43;1.80;;;;;;;;;;5032211;28;20068;-55
2023/07/19 08:33:15;;;;;;;3.85;1.50;;;;;;;;;;5033837;28;20032;-57
2023/07/19 08:35:42;;;;;;;5.13;1.95;;;;;;;;;;5033061;28;20022;-55
2023/07/19 08:38:09;;;;;;;3.95;1.45;;;;;;;;;;5033029;28;20112;-55
2023/07/19 08:40:38;;;;;;;4.30;2.00;;;33.30;99.90;;;;;;5033433;28;20029;-55
2023/07/19 08:43:07;;;;;;;6.20;2.00;;;33.50;99.90;;;;;;5033524;28;20056;-55
2023/07/19 08:45:37;;;;;;;4.15;1.50;;;33.60;99.90;;;;;;5034185;28;20133;-56
2023/07/19 08:48:04;;;;;;;5.00;1.85;;;33.10;99.90;;;;;;5033309;28;20040;-55
2023/07/19 08:50:31;;;;;;;6.88;2.13;;;32.80;99.90;;;;;;5029511;28;20072;-55
2023/07/19 08:53:02;;;;;;;3.95;1.50;;;32.80;99.90;;;;;;5033580;28;20079;-55
2023/07/19 08:55:33;;;;;;;4.57;1.92;;;32.90;99.90;;;;;;5033773;28;20075;-55
2023/07/19 08:57:59;;;;;;;2.45;1.58;;;33.20;99.90;;;;;;5029757;28;20021;-55
2023/07/19 09:00:28;;;;;;;3.97;1.70;;;33.40;99.90;;;;;;5032878;28;20060;-55
2023/07/19 09:02:55;;;;;;;2.88;1.55;;;33.70;99.90;;;;;;5032992;28;20427;-54
2023/07/19 09:05:20;;;;;;;3.55;1.77;;;33.90;99.70;;;;;;5034586;28;20488;-55
2023/07/19 09:07:48;;;;;;;7.72;1.70;;;33.60;99.30;;;;;;5031466;28;20054;-55
2023/07/19 09:10:16;;;;;;;3.53;1.92;;;33.60;99.10;;;;;;5033219;28;20048;-56
2023/07/19 09:12:43;;;;;;;4.88;1.90;;;34.00;99.40;;;;;;5033271;28;20034;-54
2023/07/19 09:15:10;;;;;;;4.38;1.60;;;34.20;99.10;;;;;;5033057;28;20116;-55
2023/07/19 09:17:46;;;;;;;7.22;1.77;;;;;;;;;;5032410;28;20033;-55
2023/07/19 09:20:13;;;;;;;5.00;1.90;;;34.80;98.40;;;;;;5033063;28;20392;-55
2023/07/19 09:22:39;;;;;;;9.70;1.80;;;34.50;98.80;;;;;;5032407;28;20148;-54
2023/07/19 09:25:09;;;;;;;2.53;1.35;;;34.70;98.30;;;;;;5032869;28;20116;-54
2023/07/19 09:27:35;;;;;;;4.53;1.50;;;35.40;99.30;;;;;;5032402;28;20106;-55
2023/07/19 09:30:04;;;;;;;3.78;1.60;;;35.80;97.90;;;;;;5033841;28;20037;-54
2023/07/19 09:32:30;;;;;;;3.55;1.83;;;35.50;97.60;;;;;;5031775;28;20104;-56
2023/07/19 09:34:57;;;;;;;3.28;1.52;;;35.50;98.00;;;;;;5032457;28;20125;-56
2023/07/19 09:37:24;;;;;;;4.35;1.92;;;;;;;;;;4992260;28;20030;-54
2023/07/19 09:39:51;;;;;;;4.70;1.40;;;36.00;96.30;;;;;;4990245;28;20051;-55
2023/07/19 09:42:19;;;;;;;2.53;1.65;;;36.00;96.50;;;;;;4990411;28;20219;-55
2023/07/19 09:44:48;;;;;;;3.50;1.65;;;36.30;96.90;;;;;;4989996;28;20034;-55
2023/07/19 09:47:15;;;;;;;2.58;1.45;;;36.40;95.50;;;;;;4990171;28;20038;-56
2023/07/19 09:49:42;;;;;;;4.75;2.13;;;36.40;95.00;;;;;;4990164;28;20042;-55
2023/07/19 09:52:12;;;;;;;4.65;1.65;;;36.10;95.10;;;;;;4946156;28;20057;-55
2023/07/19 09:54:38;;;;;;;1.97;1.60;;;36.00;94.90;;;;;;4990351;28;20081;-55
2023/07/19 09:57:04;;;;;;;4.47;1.65;;;35.70;94.70;;;;;;4985269;28;20280;-56
2023/07/19 09:59:45;;;;;;;8.23;1.85;;;36.10;95.30;;;;;;4973063;28;20037;-56
2023/07/19 10:02:12;;;;;;;;;;;36.40;95.10;;;;;;4989422;28;20141;-55
2023/07/19 10:04:39;;;;;;;3.67;1.70;;;;;;;;;;4990140;28;19944;-55
2023/07/19 10:07:18;;;;;;;6.43;2.13;;;36.70;94.00;;;;;;4991370;28;20058;-55
2023/07/19 10:09:46;;;;;;;6.95;2.00;;;36.90;94.30;;;;;;5031859;28;20038;-55
2023/07/19 10:12:17;;;;;;;5.38;2.08;;;37.10;94.70;;;;;;5033854;28;20052;-55
2023/07/19 10:14:58;;;;;;;5.70;1.73;;;37.20;94.00;;;;;;5029848;28;20041;-55
2023/07/19 10:17:26;;;;;;;2.65;1.50;;;36.90;94.00;;;;;;5027535;28;20026;-55
2023/07/19 10:20:04;;;;;;;3.05;1.90;;;35.80;93.40;;;;;;5028478;28;20057;-54
2023/07/19 10:22:49;;;;;;;4.55;2.00;;;35.50;93.70;;;;;;5010721;28;20402;-56
2023/07/19 10:25:21;;;;;;;4.65;1.60;;;35.80;94.00;;;;;;5030644;28;20116;-58
2023/07/19 10:27:55;;;;;;;5.30;1.50;;;36.50;93.80;;;;;;5030331;28;20045;-57
2023/07/19 10:30:21;;;;;;;5.38;1.75;;;;;;;;;;5031970;28;20033;-58
2023/07/19 10:32:50;;;;;;;7.28;1.60;;;37.50;93.80;;;;;;5030534;28;20108;-55
2023/07/19 10:35:32;;;;;;;3.50;1.92;;;37.70;93.50;;;;;;5031874;28;20040;-55
2023/07/19 10:37:58;;;;;;;5.10;1.45;;;;;;;;;;5030454;28;20029;-58
2023/07/19 10:40:24;;;;;;;3.58;1.73;;;37.80;92.90;;;;;;5007375;28;20065;-56
2023/07/19 10:42:49;;;;;;;4.50;1.60;;;38.10;92.80;;;;;;5031430;28;20150;-59
2023/07/19 10:45:16;;;;;;;4.07;1.50;;;;;;;;;;5031275;28;20087;-55
2023/07/19 10:47:41;;;;;;;4.18;1.73;;;38.00;90.80;;;;;;5030482;28;20037;-56
2023/07/19 10:50:09;;;;;;;2.80;1.80;;;37.90;91.80;;;;;;5031270;28;20182;-56
2023/07/19 10:52:34;;;;;;;7.55;1.80;;;38.00;91.10;;;;;;5031477;28;20481;-57
2023/07/19 10:55:00;;;;;;;2.13;1.45;;;38.20;91.00;;;;;;4992150;28;20129;-57
2023/07/19 10:57:29;;;;;;;5.00;1.45;;;38.00;90.60;;;;;;5030118;28;20117;-58
2023/07/19 10:59:54;;;;;;;3.33;1.30;;;38.10;90.50;;;;;;5031696;28;20514;-58
2023/07/19 11:02:21;;;;;;;4.70;1.80;;;38.10;90.70;;;;;;5000102;28;20049;-56
2023/07/19 11:04:48;;;;;;;3.50;1.67;;;38.40;90.40;;;;;;5032891;28;20034;-59
2023/07/19 11:07:14;;;;;;;3.83;2.17;;;;;;;;;;5031604;28;20408;-60
2023/07/19 11:09:42;;;;;;;3.03;1.55;;;38.60;90.40;;;;;;5000387;28;20080;-59
2023/07/19 11:12:12;;;;;;;4.03;1.38;;;38.40;89.90;;;;;;5030156;28;20040;-56
2023/07/19 11:14:42;;;;;;;3.40;1.60;;;38.50;89.50;;;;;;5031095;28;20124;-59
2023/07/19 11:17:09;;;;;;;3.10;1.50;;;38.70;89.50;;;;;;5032410;28;20111;-57
2023/07/19 11:19:40;;;;;;;5.93;1.60;;;38.80;89.70;;;;;;5031151;28;20030;-58
2023/07/19 11:22:07;;;;;;;3.70;1.50;;;;;;;;;;5031418;28;20108;-56
2023/07/19 11:24:37;;;;;;;2.25;1.40;;;37.50;88.80;;;;;;5032039;28;20038;-58
2023/07/19 11:27:04;;;;;;;3.50;1.55;;;38.00;90.30;;;;;;5030263;28;20037;-56
2023/07/19 11:29:31;;;;;;;4.18;1.42;;;38.40;90.20;;;;;;5016063;28;20084;-57
2023/07/19 11:32:12;;;;;;;3.47;1.23;;;38.20;90.60;;;;;;5035287;28;20029;-56
2023/07/19 11:34:47;;;;;;;4.35;1.73;;;38.80;92.70;;;;;;5034427;28;20496;-58
2023/07/19 11:37:21;;;;;;;6.40;2.20;;;38.50;88.50;;;;;;5034604;28;20490;-59
2023/07/19 11:39:51;;;;;;;5.07;1.55;;;38.90;91.10;;;;;;5034848;28;20029;-55
2023/07/19 11:42:36;;;;;;;2.50;1.50;;;;;;;;;;5033560;28;20075;-56
2023/07/19 11:45:11;;;;;;;7.20;1.38;;;39.30;89.20;;;;;;5016238;28;20493;-58
2023/07/19 11:47:38;;;;;;;4.57;1.52;;;;;;;;;;5033948;28;20477;-58
2023/07/19 11:50:05;;;;;;;2.90;1.83;;;39.50;87.10;;;;;;5034653;28;20084;-59
2023/07/19 11:52:31;;;;;;;5.07;1.40;;;40.00;94.60;;;;;;5006260;28;20072;-57
2023/07/19 11:54:56;;;;;;;4.22;1.75;;;39.80;88.10;;;;;;5018380;28;20025;-56
2023/07/19 11:57:22;;;;;;;8.38;1.70;;;40.00;88.50;;;;;;5030690;28;20508;-57
2023/07/19 11:59:49;;;;;;;3.30;1.25;;;39.90;86.80;;;;;;5032157;28;20100;-60
2023/07/19 12:02:15;;;;;;;7.07;1.65;;;39.80;86.60;;;;;;5010613;28;20060;-57
2023/07/19 12:04:41;;;;;;;2.80;1.27;;;39.80;87.00;;;;;;5034532;28;20101;-60
2023/07/19 12:07:07;;;;;;;2.25;1.50;;;39.20;86.30;;;;;;5033691;28;20084;-58
2023/07/19 12:09:33;;;;;;;3.15;1.40;;;39.30;86.80;;;;;;5028166;28;20081;-59
2023/07/19 12:11:58;;;;;;;2.20;1.40;;;39.50;86.00;;;;;;5030549;28;20040;-59
2023/07/19 12:14:24;;;;;;;4.47;1.50;;;39.40;86.20;;;;;;5028693;28;20060;-58
2023/07/19 12:16:50;;;;;;;2.85;1.40;;;39.10;87.70;;;;;;5031483;28;20030;-61
2023/07/19 12:19:16;;;;;;;6.35;1.75;;;;;;;;;;5027935;28;20037;-61
2023/07/19 12:21:42;;;;;;;4.93;1.50;;;39.80;96.20;;;;;;5032211;28;20053;-60
2023/07/19 12:24:08;;;;;;;4.40;1.30;;;40.10;89.00;;;;;;5006571;28;20069;-59
2023/07/19 12:26:35;;;;;;;3.60;1.48;;;40.20;86.30;;;;;;5031584;28;20045;-57
2023/07/19 12:29:01;;;;;;;5.18;1.35;;;40.10;86.10;;;;;;5031419;28;20421;-58
2023/07/19 12:31:27;;;;;;;4.32;1.70;;;40.30;86.10;;;;;;5031428;28;20393;-67
2023/07/19 12:33:53;;;;;;;3.65;1.42;;;40.60;86.90;;;;;;5031321;28;20195;-65
2023/07/19 12:36:19;;;;;;;5.05;1.33;;;;;;;;;;5032117;28;20116;-62
2023/07/19 12:38:45;;;;;;;5.25;1.95;;;40.60;85.80;;;;;;5030702;28;20168;-61
2023/07/19 12:41:11;;;;;;;8.25;1.33;;;40.30;86.30;;;;;;5031511;28;20033;-62
2023/07/19 12:43:37;;;;;;;3.35;1.55;;;40.30;86.20;;;;;;5033352;28;20032;-66
2023/07/19 12:46:02;;;;;;;4.30;1.50;;;39.40;83.40;;;;;;5034149;28;20087;-64
2023/07/19 12:48:29;;;;;;;5.07;1.70;;;39.40;84.10;;;;;;5033166;28;20025;-61
2023/07/19 12:50:54;;;;;;;3.80;1.67;;;39.70;84.40;;;;;;5033287;28;20068;-63
2023/07/19 12:53:20;;;;;;;4.70;1.60;;;40.00;84.80;;;;;;5032878;28;20025;-64
2023/07/19 12:55:46;;;;;;;3.85;1.42;;;39.60;83.20;;;;;;5033852;28;20028;-65